首页
METAR-TAF:

METAR-TAF

机场 :

Sonora Municipal Airport

Sonora, 得克萨斯州, 美国

纬度: 30-35-08N, 经度: 100-38-54W, 海拔: 652米

当前天气观测

该预报发布于35分钟前的23:55 UTC
风速11节,风向南转南东,有时为19节阵风
温度
气压 1016 hPa
能見度: 14.5公里
天空无云

METAR: KSOA 152355Z AUTO 16011G19KT 9SM CLR A3000 RMK AO2

时间: 19:30 (00:30 UTC)

预报

该预报发布于1小时和10分钟前的23:20 UTC
预报有效从16日的 00点(UTC)到 16日的 24点(UTC)
风速11节,风向,有时为18节阵风
能見度: 10公里
天空无云
从 16日的 0100点(UTC)
风速9节,风向南转南东
能見度: 10公里
天空无云
从 16日的 1500点(UTC)
风速11节,风向,有时为17节阵风
能見度: 10公里
天空无云

TAF: KSOA 152320Z 1600/1624 17011G18KT P6SM SKC FM160100 16009KT P6SM SKC FM161500 17011G17KT P6SM SKC

超过4000个机场的气象观测和天气预报(METAR&TAF报告)。

可查询的气象台以黄色和红色小点在地图上表示。

将鼠标移到小点上方,可查看气象台名称。

然后点击查看天气观测和预报。

如需切换地图:点击带黑十字的绿色按钮放大地图;点击带横线的绿色按钮缩小地图;或者点击绿色箭头查看邻近地区的地图。


METAR-TAF: